Time;durP1;ratioP1;P1;durP2;ratioP2;P2;SDS_P1;SDS_P2;PMS_P1;PMS_P2;Temp;Humidity;BMP_temperature;BMP_pressure;BME280_temperature;BME280_humidity;BME280_pressure;Samples;Min_cycle;Max_cycle;Signal;HPM_P1;HPM_P2
2021/01/21 00:01:36;;;;;;;1.70;0.93;;;9.50;99.90;;;;;;4948673;28;20940;-92
2021/01/21 00:04:02;;;;;;;0.80;0.70;;;9.50;99.90;;;;;;4948598;28;20231;-92
2021/01/21 00:06:28;;;;;;;1.10;0.97;;;9.50;99.90;;;;;;4965295;28;20223;-91
2021/01/21 00:08:53;;;;;;;0.73;0.60;;;9.50;99.90;;;;;;4948327;28;20196;-91
2021/01/21 00:11:19;;;;;;;1.33;0.87;;;9.40;99.90;;;;;;4950007;28;20192;-91
2021/01/21 00:13:45;;;;;;;14.73;2.00;;;9.50;99.90;;;;;;4948360;28;20219;-92
2021/01/21 00:16:10;;;;;;;3.00;0.63;;;9.50;99.90;;;;;;4964447;28;20281;-92
2021/01/21 00:18:36;;;;;;;0.77;0.77;;;9.50;99.90;;;;;;4964726;28;20705;-92
2021/01/21 00:21:02;;;;;;;1.03;0.93;;;9.50;99.90;;;;;;4964667;28;20184;-92
2021/01/21 00:23:30;;;;;;;1.23;0.90;;;9.50;99.90;;;;;;4965308;28;20231;-91
2021/01/21 00:25:58;;;;;;;0.97;0.90;;;9.50;99.90;;;;;;4965151;28;20317;-93
2021/01/21 00:28:24;;;;;;;0.57;0.57;;;9.60;99.90;;;;;;4964103;28;20569;-92
2021/01/21 00:30:50;;;;;;;1.73;1.17;;;9.60;99.90;;;;;;4964984;28;20693;-89
2021/01/21 00:33:15;;;;;;;1.10;1.00;;;9.50;99.90;;;;;;4949148;28;20226;-91
2021/01/21 00:35:41;;;;;;;1.20;1.10;;;9.40;99.90;;;;;;4964131;28;20195;-92
2021/01/21 00:38:07;;;;;;;0.47;0.47;;;9.50;99.90;;;;;;4944482;28;20220;-93
2021/01/21 00:40:33;;;;;;;1.17;0.90;;;9.50;99.90;;;;;;4957122;28;20232;-92
2021/01/21 00:42:58;;;;;;;1.07;1.00;;;9.60;99.90;;;;;;4944393;28;20259;-92
2021/01/21 00:45:24;;;;;;;0.83;0.83;;;9.60;99.90;;;;;;4960312;28;20232;-92
2021/01/21 00:47:50;;;;;;;0.80;0.80;;;9.50;99.90;;;;;;4963415;28;20198;-91
2021/01/21 00:50:16;;;;;;;0.50;0.50;;;9.50;99.90;;;;;;4980497;28;20200;-93
2021/01/21 00:52:42;;;;;;;1.57;1.33;;;9.50;99.90;;;;;;4962489;28;20232;-92
2021/01/21 00:55:08;;;;;;;1.40;1.17;;;9.40;99.90;;;;;;4964762;28;20226;-93
2021/01/21 00:57:34;;;;;;;0.70;0.70;;;9.40;99.90;;;;;;4980535;28;20307;-92
2021/01/21 00:59:59;;;;;;;0.87;0.77;;;9.30;99.90;;;;;;4948411;28;21251;-92
2021/01/21 01:02:25;;;;;;;7.40;1.43;;;9.30;99.90;;;;;;4965971;28;20214;-92
2021/01/21 01:04:51;;;;;;;0.70;0.70;;;9.40;99.90;;;;;;4982168;28;20224;-92
2021/01/21 01:07:17;;;;;;;1.47;0.97;;;9.40;99.90;;;;;;4939446;28;20220;-91
2021/01/21 01:09:42;;;;;;;1.33;1.07;;;9.40;99.90;;;;;;4963650;28;20307;-91
2021/01/21 01:12:08;;;;;;;1.10;0.90;;;9.40;99.90;;;;;;4964324;28;20228;-92
2021/01/21 01:14:34;;;;;;;0.57;0.57;;;9.50;99.90;;;;;;4981565;28;20771;-92
2021/01/21 01:17:00;;;;;;;0.40;0.40;;;9.50;99.90;;;;;;4980558;28;20290;-91
2021/01/21 01:19:25;;;;;;;3.10;0.70;;;9.50;99.90;;;;;;4948183;28;20250;-92
2021/01/21 01:21:51;;;;;;;0.63;0.63;;;9.50;99.90;;;;;;4964673;28;20976;-92
2021/01/21 01:24:20;;;;;;;0.77;0.50;;;9.50;99.90;;;;;;4948648;28;20306;-92
2021/01/21 01:26:45;;;;;;;0.83;0.83;;;9.50;99.90;;;;;;4965532;28;21126;-91
2021/01/21 01:29:11;;;;;;;1.73;0.87;;;9.50;99.90;;;;;;4947977;28;20212;-92
2021/01/21 01:31:37;;;;;;;1.03;0.67;;;9.50;99.90;;;;;;4948243;28;21078;-92
2021/01/21 01:34:03;;;;;;;0.50;0.50;;;9.40;99.90;;;;;;4951982;28;20812;-93
2021/01/21 01:36:28;;;;;;;0.47;0.43;;;9.40;99.90;;;;;;4950926;28;20261;-92
2021/01/21 01:38:54;;;;;;;1.07;0.97;;;9.40;99.90;;;;;;4947822;28;20196;-92
2021/01/21 01:41:20;;;;;;;0.43;0.43;;;9.40;99.90;;;;;;4985517;28;21011;-92
2021/01/21 01:43:48;;;;;;;0.73;0.70;;;9.40;99.90;;;;;;4967902;28;20227;-91
2021/01/21 01:46:14;;;;;;;4.23;1.47;;;9.50;99.90;;;;;;4950561;28;20264;-92
2021/01/21 01:48:40;;;;;;;0.67;0.67;;;9.50;99.90;;;;;;4966315;28;20224;-92
2021/01/21 01:51:06;;;;;;;0.77;0.77;;;9.60;99.90;;;;;;4965103;28;20622;-92
2021/01/21 01:53:35;;;;;;;1.70;1.20;;;9.70;99.90;;;;;;4950215;28;20283;-92
2021/01/21 01:56:01;;;;;;;0.77;0.33;;;9.80;99.90;;;;;;4967072;28;20334;-93
2021/01/21 01:58:32;;;;;;;0.80;0.80;;;9.70;99.90;;;;;;4967126;28;20239;-91
2021/01/21 02:00:59;;;;;;;0.70;0.70;;;9.80;99.90;;;;;;4950245;28;20218;-92
2021/01/21 02:03:25;;;;;;;0.63;0.63;;;9.90;99.90;;;;;;4983709;28;20376;-93
2021/01/21 02:05:52;;;;;;;0.57;0.57;;;9.90;99.90;;;;;;4967398;28;20196;-91
2021/01/21 02:08:22;;;;;;;1.07;0.77;;;9.90;99.90;;;;;;4953044;28;20200;-93
2021/01/21 02:10:48;;;;;;;0.70;0.70;;;10.00;99.90;;;;;;4966353;28;20728;-91
2021/01/21 02:13:32;;;;;;;1.13;0.60;;;10.00;99.90;;;;;;4966965;28;20230;-93
2021/01/21 02:16:29;;;;;;;0.60;0.60;;;9.90;99.90;;;;;;4984197;28;20224;-92
2021/01/21 02:19:27;;;;;;;0.50;0.50;;;9.80;99.90;;;;;;4967431;28;20235;-91
2021/01/21 02:22:14;;;;;;;0.43;0.43;;;9.70;99.90;;;;;;4966843;28;20227;-90
2021/01/21 02:24:58;;;;;;;0.50;0.50;;;9.70;99.90;;;;;;4967009;28;20243;-91
2021/01/21 02:27:30;;;;;;;0.40;0.40;;;9.90;99.90;;;;;;4967160;28;20223;-91
2021/01/21 02:30:07;;;;;;;1.03;0.70;;;10.00;99.90;;;;;;4983324;28;20188;-90
2021/01/21 02:32:49;;;;;;;1.00;0.87;;;10.10;99.90;;;;;;4968658;28;20203;-91
2021/01/21 02:35:18;;;;;;;0.87;0.87;;;10.10;99.90;;;;;;4967546;28;20223;-92
2021/01/21 02:37:55;;;;;;;0.70;0.70;;;10.20;99.90;;;;;;4967161;28;20227;-91
2021/01/21 02:40:22;;;;;;;0.83;0.50;;;10.20;99.90;;;;;;4965852;28;20299;-91
2021/01/21 02:42:49;;;;;;;2.43;0.93;;;10.30;99.90;;;;;;4941177;28;20246;-89
2021/01/21 02:45:15;;;;;;;0.97;0.80;;;10.30;99.90;;;;;;4965417;28;20235;-91
2021/01/21 02:47:42;;;;;;;1.23;0.53;;;10.30;99.90;;;;;;4966894;28;20196;-92
2021/01/21 02:50:10;;;;;;;0.83;0.83;;;10.30;99.90;;;;;;4966672;28;20254;-91
2021/01/21 02:52:54;;;;;;;0.77;0.30;;;10.30;99.90;;;;;;4965826;28;20267;-91
2021/01/21 02:55:25;;;;;;;1.00;0.90;;;10.30;99.90;;;;;;4966091;28;20231;-91
2021/01/21 02:58:23;;;;;;;0.60;0.50;;;10.40;99.90;;;;;;4965611;28;20224;-91
2021/01/21 03:00:52;;;;;;;0.50;0.50;;;10.50;99.90;;;;;;4934320;28;20212;-91
2021/01/21 03:03:22;;;;;;;2.20;0.60;;;10.50;99.90;;;;;;4982114;28;20249;-92
2021/01/21 03:05:53;;;;;;;0.40;0.40;;;10.50;99.90;;;;;;4964491;28;20647;-85
2021/01/21 03:08:19;;;;;;;0.80;0.57;;;10.60;99.90;;;;;;4965214;28;20192;-91
2021/01/21 03:10:45;;;;;;;0.83;0.50;;;10.60;99.90;;;;;;4965168;28;20803;-92
2021/01/21 03:13:11;;;;;;;0.73;0.70;;;10.50;99.90;;;;;;4981294;28;20310;-90
2021/01/21 03:15:36;;;;;;;3.27;0.93;;;10.70;99.90;;;;;;4949143;28;20223;-92
2021/01/21 03:18:04;;;;;;;1.70;0.63;;;10.60;99.90;;;;;;4966238;28;20275;-90
2021/01/21 03:20:30;;;;;;;0.67;0.67;;;10.60;99.90;;;;;;4983645;28;20192;-91
2021/01/21 03:22:56;;;;;;;1.13;0.47;;;10.50;99.90;;;;;;4966107;28;20243;-92
2021/01/21 03:25:21;;;;;;;1.53;1.00;;;10.50;99.90;;;;;;4949479;28;20236;-90
2021/01/21 03:27:47;;;;;;;0.80;0.57;;;10.60;99.90;;;;;;4949923;28;20354;-90
2021/01/21 03:30:13;;;;;;;0.53;0.53;;;10.60;99.90;;;;;;4949419;28;20223;-92
2021/01/21 03:32:39;;;;;;;0.40;0.40;;;10.70;99.90;;;;;;4982241;28;20192;-90
2021/01/21 03:35:06;;;;;;;0.60;0.40;;;10.60;99.90;;;;;;4965099;28;21171;-91
2021/01/21 03:37:32;;;;;;;1.40;1.00;;;10.40;99.90;;;;;;4958764;28;20227;-91
2021/01/21 03:39:58;;;;;;;0.60;0.60;;;10.30;99.90;;;;;;4979970;28;20220;-91
2021/01/21 03:42:24;;;;;;;0.40;0.40;;;10.10;99.90;;;;;;4965735;28;20224;-92
2021/01/21 03:44:49;;;;;;;0.70;0.70;;;10.10;99.90;;;;;;4949355;28;20222;-91
2021/01/21 03:47:15;;;;;;;0.97;0.63;;;10.00;99.90;;;;;;4966491;28;20195;-90
2021/01/21 03:49:41;;;;;;;0.50;0.50;;;9.80;99.90;;;;;;4949677;28;20219;-92
2021/01/21 03:52:07;;;;;;;0.50;0.50;;;9.60;99.90;;;;;;4981512;28;20239;-92
2021/01/21 03:54:33;;;;;;;1.23;0.70;;;9.50;99.90;;;;;;4981034;28;20281;-92
2021/01/21 03:56:58;;;;;;;1.73;1.63;;;9.60;99.90;;;;;;4979431;28;20200;-91
2021/01/21 03:59:24;;;;;;;1.00;1.00;;;9.50;99.90;;;;;;4966238;28;20969;-92
2021/01/21 04:01:50;;;;;;;2.97;1.43;;;9.40;99.90;;;;;;4981501;28;20251;-92
2021/01/21 04:04:15;;;;;;;0.60;0.60;;;9.30;99.90;;;;;;4980678;28;20286;-92
2021/01/21 04:06:41;;;;;;;1.30;1.23;;;9.40;99.90;;;;;;4981137;28;20232;-92
2021/01/21 04:09:07;;;;;;;0.97;0.90;;;9.40;99.90;;;;;;4947921;28;20192;-92
2021/01/21 04:11:33;;;;;;;1.30;0.80;;;9.40;99.90;;;;;;4984340;28;20312;-93
2021/01/21 04:13:58;;;;;;;0.70;0.60;;;9.30;99.90;;;;;;4926109;28;20705;-93
2021/01/21 04:16:24;;;;;;;0.67;0.67;;;9.20;99.90;;;;;;4965538;28;20302;-93
2021/01/21 04:18:50;;;;;;;0.97;0.93;;;9.20;99.90;;;;;;4948799;28;20270;-92
2021/01/21 04:21:16;;;;;;;1.00;1.00;;;9.10;99.90;;;;;;4980767;28;20873;-92
2021/01/21 04:23:42;;;;;;;0.50;0.50;;;9.10;99.90;;;;;;4966194;28;20692;-92
2021/01/21 04:26:07;;;;;;;1.60;1.10;;;9.10;99.90;;;;;;4965039;28;20230;-92
2021/01/21 04:28:33;;;;;;;1.73;1.10;;;9.10;99.90;;;;;;4962538;28;20975;-92
2021/01/21 04:30:59;;;;;;;3.23;0.70;;;9.10;99.90;;;;;;4980149;28;20228;-93
2021/01/21 04:33:25;;;;;;;1.90;0.83;;;9.10;99.90;;;;;;4964442;28;20227;-92
2021/01/21 04:35:51;;;;;;;1.40;0.40;;;9.10;99.90;;;;;;4980626;28;20191;-90
2021/01/21 04:38:17;;;;;;;0.50;0.40;;;9.00;99.90;;;;;;4964860;28;20188;-93
2021/01/21 04:40:45;;;;;;;0.70;0.70;;;8.90;99.90;;;;;;4963509;28;20263;-92
2021/01/21 04:43:10;;;;;;;0.20;0.20;;;8.80;99.90;;;;;;4980050;28;20228;-90
2021/01/21 04:45:36;;;;;;;0.30;0.30;;;8.80;99.90;;;;;;4962266;28;20266;-91
2021/01/21 04:48:02;;;;;;;0.67;0.40;;;8.60;99.90;;;;;;4948757;28;20291;-94
2021/01/21 04:50:29;;;;;;;0.40;0.40;;;8.50;99.90;;;;;;4949960;28;20291;-91
2021/01/21 04:52:57;;;;;;;0.93;0.50;;;8.40;99.90;;;;;;4980718;28;20616;-93
2021/01/21 04:55:31;;;;;;;2.10;2.00;;;8.30;99.90;;;;;;4979753;28;20230;-93
2021/01/21 04:58:17;;;;;;;0.30;0.30;;;8.20;99.90;;;;;;4963691;28;20224;-92
2021/01/21 05:00:44;;;;;;;0.27;0.23;;;8.10;99.90;;;;;;4981070;28;21102;-94
2021/01/21 05:03:12;;;;;;;1.63;0.43;;;7.90;99.90;;;;;;4964313;28;20246;-92
2021/01/21 05:05:39;;;;;;;4.80;0.90;;;7.80;99.90;;;;;;4965670;28;20402;-93
2021/01/21 05:08:05;;;;;;;1.67;0.40;;;7.70;99.90;;;;;;4966349;28;20773;-90
2021/01/21 05:10:32;;;;;;;0.93;0.50;;;7.60;99.90;;;;;;4968256;28;20224;-91
2021/01/21 05:12:58;;;;;;;1.23;0.83;;;7.50;99.90;;;;;;4984172;28;20251;-92
2021/01/21 05:15:24;;;;;;;0.93;0.93;;;7.50;99.90;;;;;;4953134;28;20335;-92
2021/01/21 05:17:51;;;;;;;1.80;0.73;;;7.40;99.90;;;;;;4985673;28;20192;-93
2021/01/21 05:20:16;;;;;;;5.00;1.20;;;7.40;99.90;;;;;;4968524;28;20188;-93
2021/01/21 05:22:42;;;;;;;1.90;0.37;;;7.30;99.90;;;;;;4967460;28;20219;-91
2021/01/21 05:25:08;;;;;;;0.10;0.10;;;7.30;99.90;;;;;;4967969;28;21186;-93
2021/01/21 05:27:35;;;;;;;0.90;0.90;;;7.30;99.90;;;;;;4935531;28;20235;-92
2021/01/21 05:30:03;;;;;;;0.80;0.80;;;7.30;99.90;;;;;;4968368;28;20216;-93
2021/01/21 05:32:30;;;;;;;7.90;1.80;;;7.30;99.90;;;;;;4968869;28;20184;-92
2021/01/21 05:34:55;;;;;;;0.47;0.20;;;7.30;99.90;;;;;;4984642;28;20561;-93
2021/01/21 05:37:21;;;;;;;9.60;0.80;;;7.20;99.90;;;;;;4983274;28;20709;-92
2021/01/21 05:39:47;;;;;;;0.93;0.63;;;6.90;99.90;;;;;;4966046;28;20250;-92
2021/01/21 05:42:13;;;;;;;1.03;0.33;;;6.70;99.90;;;;;;4981605;28;20227;-93
2021/01/21 05:44:39;;;;;;;2.20;1.20;;;6.60;99.90;;;;;;4954308;28;20228;-93
2021/01/21 05:47:09;;;;;;;0.97;0.97;;;6.60;99.90;;;;;;4967639;28;20462;-94
2021/01/21 05:49:36;;;;;;;5.27;1.43;;;6.50;99.90;;;;;;4929012;28;20216;-93
2021/01/21 05:52:04;;;;;;;5.30;0.73;;;6.40;99.90;;;;;;4949690;28;20380;-94
2021/01/21 05:54:30;;;;;;;0.77;0.40;;;6.40;99.90;;;;;;4923447;28;20240;-95
2021/01/21 05:57:00;;;;;;;2.47;0.93;;;6.40;99.90;;;;;;4966012;28;20199;-93
2021/01/21 05:59:28;;;;;;;2.73;1.30;;;6.30;99.90;;;;;;4986317;28;20215;-93
2021/01/21 06:01:57;;;;;;;0.40;0.40;;;6.30;99.90;;;;;;4976967;28;20547;-94
2021/01/21 06:04:26;;;;;;;2.80;0.67;;;6.30;99.90;;;;;;4979384;28;20232;-93
2021/01/21 06:06:53;;;;;;;5.87;0.77;;;6.20;99.90;;;;;;4967422;28;20220;-95
2021/01/21 06:09:28;;;;;;;1.73;0.40;;;6.30;99.90;;;;;;4966914;28;20219;-94
2021/01/21 06:12:04;;;;;;;0.30;0.30;;;6.20;99.90;;;;;;4981178;28;20298;-93
2021/01/21 06:14:31;;;;;;;1.70;1.03;;;6.20;99.90;;;;;;4966278;28;20580;-95
2021/01/21 06:16:57;;;;;;;0.40;0.40;;;6.10;99.90;;;;;;4983206;28;20226;-94
2021/01/21 06:19:23;;;;;;;0.83;0.53;;;6.10;99.90;;;;;;4965396;28;20224;-95
2021/01/21 06:22:06;;;;;;;1.27;0.83;;;6.00;99.90;;;;;;4966559;28;20223;-96
2021/01/21 06:24:42;;;;;;;3.53;0.77;;;6.00;99.90;;;;;;4967166;28;20338;-94
2021/01/21 06:27:10;;;;;;;0.60;0.60;;;5.90;99.90;;;;;;4984108;28;22151;-95
2021/01/21 06:29:36;;;;;;;0.23;0.23;;;5.80;99.90;;;;;;4969510;28;20210;-95
2021/01/21 06:32:03;;;;;;;0.13;0.13;;;5.80;99.90;;;;;;4949572;28;20223;-94
2021/01/21 06:34:34;;;;;;;5.77;1.27;;;5.80;99.90;;;;;;4951404;28;20228;-95
2021/01/21 06:37:11;;;;;;;0.30;0.30;;;5.80;99.90;;;;;;4954144;28;20223;-96
2021/01/21 06:39:46;;;;;;;0.83;0.83;;;5.70;99.90;;;;;;4985156;28;20638;-95
2021/01/21 06:42:18;;;;;;;0.47;0.47;;;5.70;99.90;;;;;;4984500;28;20227;-96
2021/01/21 06:44:44;;;;;;;1.07;0.77;;;5.80;99.90;;;;;;4972153;28;20208;-95
2021/01/21 06:47:10;;;;;;;0.20;0.20;;;5.80;99.90;;;;;;4967863;28;20226;-95
2021/01/21 06:49:39;;;;;;;1.53;0.77;;;5.80;99.90;;;;;;4953303;28;20215;-95
2021/01/21 06:52:06;;;;;;;4.17;0.40;;;5.80;99.90;;;;;;4985313;28;20246;-96
2021/01/21 06:54:35;;;;;;;1.60;0.93;;;5.80;99.90;;;;;;4970749;28;20228;-96
2021/01/21 06:57:42;;;;;;;2.77;0.30;;;5.80;99.90;;;;;;4938356;28;20184;-96
2021/01/21 07:00:17;;;;;;;1.23;0.73;;;5.80;99.90;;;;;;4952422;28;22406;-96
2021/01/21 07:02:44;;;;;;;1.30;1.20;;;5.70;99.90;;;;;;4992619;28;20230;-96
2021/01/21 07:05:25;;;;;;;1.30;0.33;;;5.70;99.90;;;;;;4977175;28;20733;-93
2021/01/21 07:07:56;;;;;;;10.50;0.67;;;5.70;99.90;;;;;;4954568;28;20712;-94
2021/01/21 07:10:28;;;;;;;2.00;0.70;;;5.70;99.90;;;;;;4982925;28;20223;-94
2021/01/21 07:12:57;;;;;;;0.37;0.37;;;5.70;99.90;;;;;;4965047;28;20216;-95
2021/01/21 07:15:32;;;;;;;0.30;0.30;;;5.70;99.90;;;;;;4966111;28;20228;-95
2021/01/21 07:18:06;;;;;;;3.07;1.10;;;5.70;99.90;;;;;;4963148;28;20275;-95
2021/01/21 07:20:35;;;;;;;0.53;0.40;;;5.70;99.90;;;;;;4963205;28;20188;-94
2021/01/21 07:23:07;;;;;;;0.20;0.20;;;5.80;99.90;;;;;;4961597;28;20232;-89
2021/01/21 07:25:36;;;;;;;2.57;1.27;;;5.70;99.90;;;;;;4946164;28;20315;-95
2021/01/21 07:28:09;;;;;;;2.20;0.70;;;5.70;99.90;;;;;;4983896;28;20266;-96
2021/01/21 07:30:38;;;;;;;4.23;0.67;;;5.70;99.90;;;;;;4965089;28;20810;-96
2021/01/21 07:33:26;;;;;;;2.23;1.53;;;5.70;99.90;;;;;;4962281;28;20191;-96
2021/01/21 07:35:52;;;;;;;3.67;1.90;;;5.70;99.90;;;;;;4965353;28;20190;-96
2021/01/21 07:38:40;;;;;;;0.10;0.10;;;5.70;99.90;;;;;;4965894;28;20382;-94
2021/01/21 07:41:06;;;;;;;0.63;0.63;;;5.60;99.90;;;;;;4981090;28;20307;-95
2021/01/21 07:43:55;;;;;;;12.17;1.40;;;5.70;99.90;;;;;;4967978;28;20226;-95
2021/01/21 07:46:25;;;;;;;0.20;0.20;;;5.80;99.90;;;;;;4983266;28;20578;-92
2021/01/21 07:49:26;;;;;;;5.00;0.43;;;5.80;99.90;;;;;;4966384;28;20232;-93
2021/01/21 07:52:06;;;;;;;2.30;1.03;;;5.90;99.90;;;;;;4980241;28;20242;-94
2021/01/21 07:54:44;;;;;;;3.73;1.33;;;5.90;99.90;;;;;;4978806;28;20211;-94
2021/01/21 07:57:10;;;;;;;0.40;0.40;;;6.00;99.90;;;;;;4966186;28;20277;-92
2021/01/21 08:00:03;;;;;;;0.67;0.57;;;6.00;99.90;;;;;;4984509;28;20649;-94
2021/01/21 08:02:49;;;;;;;3.43;1.20;;;6.20;99.90;;;;;;4988869;28;20601;-96
2021/01/21 08:05:17;;;;;;;1.10;0.80;;;6.40;99.90;;;;;;4968871;28;20231;-95
2021/01/21 08:07:50;;;;;;;2.63;0.90;;;6.60;99.90;;;;;;4987730;28;20215;-96
2021/01/21 08:10:19;;;;;;;0.30;0.30;;;6.70;99.90;;;;;;4984351;28;20548;-95
2021/01/21 08:12:51;;;;;;;2.43;0.70;;;6.50;99.90;;;;;;4964679;28;20223;-95
2021/01/21 08:15:19;;;;;;;2.00;1.70;;;6.30;99.90;;;;;;4963880;28;20224;-94
2021/01/21 08:17:45;;;;;;;0.20;0.20;;;6.30;99.90;;;;;;4966860;28;20665;-95
2021/01/21 08:20:13;;;;;;;1.30;0.77;;;6.20;99.90;;;;;;4948238;28;20247;-95
2021/01/21 08:22:58;;;;;;;0.67;0.67;;;6.20;99.90;;;;;;4964983;28;20220;-95
2021/01/21 08:25:37;;;;;;;5.93;0.70;;;6.20;99.90;;;;;;4965344;28;21008;-94
2021/01/21 08:28:03;;;;;;;1.20;0.87;;;6.30;99.90;;;;;;4982113;28;20207;-94
2021/01/21 08:30:29;;;;;;;0.47;0.47;;;6.40;99.90;;;;;;4940173;28;20322;-93
2021/01/21 08:33:28;;;;;;;2.50;0.93;;;6.50;99.90;;;;;;4980818;28;20180;-93
2021/01/21 08:35:58;;;;;;;0.67;0.67;;;6.60;99.90;;;;;;4981135;28;20183;-93
2021/01/21 08:38:27;;;;;;;2.20;2.00;;;6.60;99.90;;;;;;4949140;28;20192;-95
2021/01/21 08:40:54;;;;;;;3.53;1.80;;;6.60;99.90;;;;;;4965455;28;20574;-93
2021/01/21 08:43:21;;;;;;;1.20;1.10;;;6.70;99.90;;;;;;4965850;28;20234;-93
2021/01/21 08:45:48;;;;;;;0.97;0.70;;;6.70;99.90;;;;;;4968799;28;20278;-92
2021/01/21 08:48:31;;;;;;;0.63;0.63;;;6.60;99.90;;;;;;4969923;28;20262;-93
2021/01/21 08:50:58;;;;;;;1.73;1.27;;;6.40;99.90;;;;;;4968770;28;20214;-92
2021/01/21 08:53:29;;;;;;;2.47;0.50;;;6.40;99.90;;;;;;4986509;28;20235;-94
2021/01/21 08:55:58;;;;;;;0.30;0.30;;;6.30;99.90;;;;;;4961153;28;20219;-95
2021/01/21 08:58:34;;;;;;;0.53;0.50;;;6.40;99.90;;;;;;4961651;28;20219;-91
2021/01/21 09:01:02;;;;;;;0.37;0.30;;;6.40;99.90;;;;;;4971624;28;20223;-93
2021/01/21 09:03:36;;;;;;;1.10;0.63;;;6.30;99.90;;;;;;4959794;28;20244;-91
2021/01/21 09:06:07;;;;;;;1.30;0.53;;;6.40;99.90;;;;;;4970000;28;20184;-92
2021/01/21 09:08:54;;;;;;;3.53;1.80;;;6.40;99.90;;;;;;4955741;28;20188;-92
2021/01/21 09:11:34;;;;;;;3.03;0.83;;;6.40;99.90;;;;;;4943507;28;20223;-93
2021/01/21 09:14:01;;;;;;;1.43;0.70;;;6.50;99.90;;;;;;4967684;28;20680;-92
2021/01/21 09:16:52;;;;;;;0.90;0.90;;;6.60;99.90;;;;;;4985806;28;20219;-92
2021/01/21 09:19:27;;;;;;;0.97;0.70;;;6.50;99.90;;;;;;4968002;28;20251;-91
2021/01/21 09:21:57;;;;;;;0.50;0.50;;;6.50;99.90;;;;;;4984633;28;20237;-94
2021/01/21 09:24:23;;;;;;;0.23;0.23;;;6.60;99.90;;;;;;4967801;28;20351;-95
2021/01/21 09:27:12;;;;;;;0.33;0.33;;;6.70;99.90;;;;;;4952330;28;20636;-93
2021/01/21 09:29:51;;;;;;;2.17;0.63;;;6.70;99.90;;;;;;4984551;28;20271;-94
2021/01/21 09:32:22;;;;;;;0.60;0.60;;;6.80;99.90;;;;;;4980157;28;20215;-95
2021/01/21 09:34:54;;;;;;;0.97;0.80;;;6.70;99.90;;;;;;4966433;28;20223;-94
2021/01/21 09:37:20;;;;;;;1.43;1.23;;;6.70;99.90;;;;;;4965871;28;20582;-94
2021/01/21 09:39:46;;;;;;;0.77;0.60;;;6.70;99.90;;;;;;4949299;28;20223;-93
2021/01/21 09:42:12;;;;;;;0.43;0.43;;;6.70;99.90;;;;;;4965334;28;20315;-92
2021/01/21 09:44:37;;;;;;;1.10;0.87;;;6.80;99.90;;;;;;4968062;28;20574;-91
2021/01/21 09:47:03;;;;;;;0.97;0.90;;;6.80;99.90;;;;;;4965505;28;20219;-90
2021/01/21 09:49:29;;;;;;;1.00;0.90;;;6.80;99.90;;;;;;4944353;28;20322;-92
2021/01/21 09:51:55;;;;;;;1.70;0.40;;;6.80;99.90;;;;;;4963298;28;21733;-91
2021/01/21 09:54:20;;;;;;;0.23;0.23;;;6.90;99.90;;;;;;4946705;28;20229;-91
2021/01/21 09:56:46;;;;;;;1.50;1.03;;;6.90;99.90;;;;;;4967674;28;20188;-92
2021/01/21 09:59:12;;;;;;;1.13;0.70;;;7.00;99.90;;;;;;4950859;28;20252;-91
2021/01/21 10:01:38;;;;;;;2.33;1.27;;;7.10;99.90;;;;;;4983476;28;20335;-90
2021/01/21 10:04:04;;;;;;;0.50;0.50;;;7.20;99.90;;;;;;4965756;28;20237;-91
2021/01/21 10:06:30;;;;;;;3.30;0.50;;;7.30;99.90;;;;;;4932856;28;20258;-91
2021/01/21 10:08:56;;;;;;;1.20;0.77;;;7.30;99.90;;;;;;4948341;28;20184;-91
2021/01/21 10:11:24;;;;;;;0.40;0.40;;;7.30;99.90;;;;;;4982286;28;20192;-91
2021/01/21 10:13:50;;;;;;;1.60;0.30;;;7.30;99.90;;;;;;4963604;28;20234;-92
2021/01/21 10:16:16;;;;;;;15.20;1.27;;;7.30;99.90;;;;;;4964512;28;20220;-92
2021/01/21 10:18:41;;;;;;;4.67;1.17;;;7.30;99.90;;;;;;4980314;28;20230;-92
2021/01/21 10:21:07;;;;;;;0.43;0.43;;;7.40;99.90;;;;;;4981933;28;20199;-92
2021/01/21 10:23:35;;;;;;;2.30;1.00;;;7.50;99.90;;;;;;4964931;28;20270;-93
2021/01/21 10:26:01;;;;;;;4.33;1.40;;;7.50;99.90;;;;;;4981737;28;20235;-94
2021/01/21 10:28:26;;;;;;;0.30;0.30;;;7.60;99.90;;;;;;4948142;28;20220;-93
2021/01/21 10:30:52;;;;;;;0.30;0.30;;;7.60;99.90;;;;;;4948689;28;20216;-92
2021/01/21 10:33:18;;;;;;;3.13;0.90;;;7.60;99.90;;;;;;4963397;28;20230;-91
2021/01/21 10:35:44;;;;;;;0.20;0.20;;;7.60;99.90;;;;;;4966612;28;20199;-91
2021/01/21 10:38:09;;;;;;;2.37;1.20;;;7.60;99.90;;;;;;4948330;28;20239;-89
2021/01/21 10:40:35;;;;;;;1.50;1.13;;;7.50;99.90;;;;;;4963153;28;20588;-91
2021/01/21 10:43:01;;;;;;;0.87;0.87;;;7.50;99.90;;;;;;4947561;28;20592;-91
2021/01/21 10:45:27;;;;;;;0.20;0.20;;;7.50;99.90;;;;;;4964770;28;20255;-90
2021/01/21 10:47:52;;;;;;;0.40;0.40;;;7.40;99.90;;;;;;4949510;28;20211;-90
2021/01/21 10:50:18;;;;;;;2.43;1.47;;;7.40;99.90;;;;;;4967749;28;20195;-91
2021/01/21 10:52:44;;;;;;;0.40;0.40;;;7.40;99.90;;;;;;4979144;28;20776;-91
2021/01/21 10:55:10;;;;;;;7.70;1.07;;;7.30;99.90;;;;;;4946949;28;20224;-90
2021/01/21 10:57:36;;;;;;;1.13;0.67;;;7.10;99.90;;;;;;4945844;28;20244;-89
2021/01/21 11:00:03;;;;;;;0.53;0.53;;;6.90;99.90;;;;;;4946573;28;20315;-90
2021/01/21 11:02:29;;;;;;;6.97;1.07;;;6.90;99.90;;;;;;4962929;28;20193;-89
2021/01/21 11:04:55;;;;;;;3.80;1.70;;;6.90;99.90;;;;;;4961076;28;20243;-90
2021/01/21 11:07:20;;;;;;;0.40;0.40;;;6.80;99.90;;;;;;4950674;28;20267;-89
2021/01/21 11:09:46;;;;;;;3.20;1.10;;;6.80;99.90;;;;;;4945042;28;20239;-92
2021/01/21 11:12:15;;;;;;;1.50;0.93;;;6.80;99.90;;;;;;4946736;28;20670;-90
2021/01/21 11:14:40;;;;;;;0.40;0.40;;;6.80;99.90;;;;;;4962952;28;20287;-91
2021/01/21 11:17:06;;;;;;;11.70;0.70;;;6.90;99.90;;;;;;4963107;28;21011;-91
2021/01/21 11:19:32;;;;;;;1.20;0.93;;;6.90;99.90;;;;;;4946788;28;20674;-90
2021/01/21 11:21:58;;;;;;;3.00;1.37;;;7.10;99.90;;;;;;4947203;28;20216;-88
2021/01/21 11:24:23;;;;;;;0.60;0.60;;;7.20;99.90;;;;;;4929779;28;20644;-92
2021/01/21 11:26:49;;;;;;;1.33;0.50;;;7.40;99.90;;;;;;4962628;28;20181;-89
2021/01/21 11:29:15;;;;;;;1.10;1.00;;;7.60;99.90;;;;;;4964233;28;20217;-93
2021/01/21 11:31:41;;;;;;;0.27;0.27;;;7.70;99.90;;;;;;4946354;28;20263;-90
2021/01/21 11:34:06;;;;;;;0.50;0.50;;;7.80;99.90;;;;;;4950811;28;20236;-92
2021/01/21 11:36:32;;;;;;;0.20;0.20;;;7.80;99.90;;;;;;4946355;28;20260;-92
2021/01/21 11:38:58;;;;;;;3.67;1.70;;;7.80;99.90;;;;;;4951151;28;20248;-93
2021/01/21 11:41:24;;;;;;;0.83;0.83;;;7.70;99.90;;;;;;4965941;28;20212;-93
2021/01/21 11:43:50;;;;;;;5.40;1.13;;;7.50;99.90;;;;;;4962149;28;20255;-92
2021/01/21 11:46:16;;;;;;;1.97;0.67;;;7.40;99.90;;;;;;4962212;28;20220;-91
2021/01/21 11:48:41;;;;;;;1.10;0.47;;;7.10;99.90;;;;;;4959814;28;20837;-92
2021/01/21 11:51:07;;;;;;;0.20;0.20;;;7.20;99.90;;;;;;4947581;28;20939;-92
2021/01/21 11:53:33;;;;;;;1.13;1.03;;;7.30;99.90;;;;;;4966146;28;20366;-93
2021/01/21 11:55:59;;;;;;;2.73;1.27;;;7.30;99.90;;;;;;4964388;28;20227;-94
2021/01/21 11:58:25;;;;;;;3.63;1.10;;;7.30;99.90;;;;;;4946938;28;20693;-93
2021/01/21 12:00:50;;;;;;;8.47;1.10;;;7.30;99.90;;;;;;4964002;28;20224;-93
2021/01/21 12:03:16;;;;;;;14.03;1.90;;;7.40;99.90;;;;;;4962960;28;20255;-89
2021/01/21 12:05:43;;;;;;;0.60;0.60;;;7.50;99.90;;;;;;4964390;28;20577;-91
2021/01/21 12:08:09;;;;;;;0.50;0.50;;;7.70;99.90;;;;;;4963613;28;20216;-89
2021/01/21 12:10:34;;;;;;;7.20;1.20;;;7.90;99.90;;;;;;4978719;28;20226;-91
2021/01/21 12:13:00;;;;;;;0.60;0.60;;;7.90;99.90;;;;;;4962365;28;20565;-89
2021/01/21 12:15:26;;;;;;;1.63;1.13;;;8.10;99.90;;;;;;4963692;28;20219;-91
2021/01/21 12:17:52;;;;;;;1.63;0.70;;;8.20;99.90;;;;;;4963690;28;20188;-90
2021/01/21 12:20:18;;;;;;;0.50;0.50;;;8.10;99.90;;;;;;4965103;28;20196;-90
2021/01/21 12:22:44;;;;;;;0.43;0.43;;;8.00;99.90;;;;;;4979486;28;20302;-90
2021/01/21 12:25:10;;;;;;;2.20;1.37;;;8.00;99.90;;;;;;4962130;28;20290;-90
2021/01/21 12:27:36;;;;;;;0.83;0.30;;;8.00;99.90;;;;;;4962817;28;21053;-88
2021/01/21 12:30:02;;;;;;;2.67;0.67;;;7.90;99.90;;;;;;4961036;28;20198;-88
2021/01/21 12:32:28;;;;;;;0.60;0.60;;;8.00;99.90;;;;;;4964090;28;20214;-90
2021/01/21 12:34:54;;;;;;;1.67;1.30;;;8.10;99.90;;;;;;4962445;28;21439;-90
2021/01/21 12:37:19;;;;;;;2.43;2.13;;;8.20;99.90;;;;;;4963133;28;20220;-88
2021/01/21 12:39:45;;;;;;;0.93;0.80;;;8.30;99.90;;;;;;4961995;28;21323;-89
2021/01/21 12:42:11;;;;;;;0.30;0.30;;;8.30;99.90;;;;;;4947106;28;20224;-89
2021/01/21 12:44:37;;;;;;;1.87;1.03;;;8.40;99.90;;;;;;4948302;28;21021;-88
2021/01/21 12:47:03;;;;;;;1.00;0.90;;;8.40;99.90;;;;;;4962358;28;20212;-88
2021/01/21 12:49:29;;;;;;;0.37;0.37;;;8.40;99.90;;;;;;4946759;28;20707;-89
2021/01/21 12:51:54;;;;;;;0.83;0.83;;;8.50;99.90;;;;;;4980062;28;20235;-87
2021/01/21 12:54:20;;;;;;;1.63;0.70;;;8.40;99.90;;;;;;4946880;28;20235;-89
2021/01/21 12:56:46;;;;;;;0.63;0.53;;;8.40;99.90;;;;;;4964755;28;20549;-89
2021/01/21 12:59:12;;;;;;;0.50;0.50;;;8.40;99.90;;;;;;4962726;28;20755;-87
2021/01/21 13:01:39;;;;;;;5.50;0.47;;;8.30;99.90;;;;;;4960967;28;20319;-88
2021/01/21 13:04:05;;;;;;;2.07;0.87;;;8.30;99.90;;;;;;4946152;28;20230;-87